createdAt,value
2019-03-18T00:02:09.344Z,16.11
2019-03-18T00:04:42.652Z,15.25
2019-03-18T00:07:16.108Z,13.92
2019-03-18T00:09:50.545Z,12.94
2019-03-18T00:12:23.964Z,12.32
2019-03-18T00:15:01.407Z,11.84
2019-03-18T00:17:32.396Z,11.45
2019-03-18T00:20:05.914Z,11.12
2019-03-18T00:22:39.212Z,10.82
2019-03-18T00:25:13.020Z,10.56
2019-03-18T00:27:46.379Z,10.32
2019-03-18T00:30:20.013Z,10.11
2019-03-18T00:32:53.326Z,9.93
2019-03-18T00:35:26.654Z,9.70
2019-03-18T00:37:59.963Z,12.04
2019-03-18T00:40:33.942Z,16.04
2019-03-18T00:43:07.103Z,15.83
2019-03-18T00:45:41.897Z,14.29
2019-03-18T00:48:15.064Z,13.22
2019-03-18T00:50:48.237Z,12.52
2019-03-18T00:53:21.724Z,11.97
2019-03-18T00:55:55.220Z,11.56
2019-03-18T00:58:28.364Z,11.22
2019-03-18T01:01:01.556Z,10.90
2019-03-18T01:03:34.712Z,10.62
2019-03-18T01:06:08.836Z,10.35
2019-03-18T01:08:42.861Z,10.11
2019-03-18T01:11:18.077Z,9.89
2019-03-18T01:13:51.280Z,9.69
2019-03-18T01:16:24.596Z,12.27
2019-03-18T01:18:57.799Z,16.16
2019-03-18T01:21:31.964Z,15.91
2019-03-18T01:24:05.999Z,14.31
2019-03-18T01:26:39.291Z,13.22
2019-03-18T01:29:12.418Z,12.49
2019-03-18T01:31:45.622Z,11.96
2019-03-18T01:34:18.788Z,11.52
2019-03-18T01:36:51.987Z,11.18
2019-03-18T01:39:25.203Z,10.83
2019-03-18T01:41:58.396Z,10.53
2019-03-18T01:44:32.667Z,10.28
2019-03-18T01:47:05.848Z,10.03
2019-03-18T01:49:39.071Z,9.80
2019-03-18T01:52:12.272Z,9.61
2019-03-18T01:54:45.456Z,11.98
2019-03-18T01:57:18.672Z,15.80
2019-03-18T01:59:51.887Z,15.61
2019-03-18T02:02:25.055Z,14.13
2019-03-18T02:04:58.219Z,12.99
2019-03-18T02:07:31.373Z,12.24
2019-03-18T02:10:04.627Z,11.73
2019-03-18T02:12:37.767Z,11.28
2019-03-18T02:15:11.102Z,10.91
2019-03-18T02:17:44.862Z,10.61
2019-03-18T02:20:19.766Z,10.34
2019-03-18T02:22:52.953Z,10.06
2019-03-18T02:25:26.201Z,9.80
2019-03-18T02:27:59.445Z,9.62
2019-03-18T02:30:32.620Z,9.39
2019-03-18T02:33:05.857Z,9.20
2019-03-18T02:35:39.000Z,9.04
2019-03-18T02:38:12.289Z,11.38
2019-03-18T02:40:45.460Z,15.22
2019-03-18T02:43:18.629Z,14.75
2019-03-18T02:46:08.993Z,13.32
2019-03-18T02:48:27.648Z,12.32
2019-03-18T02:51:00.833Z,11.65
2019-03-18T02:53:34.381Z,11.15
2019-03-18T02:56:07.712Z,10.76
2019-03-18T02:58:40.885Z,10.42
2019-03-18T03:01:14.078Z,10.16
2019-03-18T03:03:48.203Z,9.90
2019-03-18T03:06:21.382Z,9.65
2019-03-18T03:08:54.595Z,9.45
2019-03-18T03:11:27.771Z,9.21
2019-03-18T03:14:00.955Z,9.03
2019-03-18T03:16:34.133Z,8.85
2019-03-18T03:19:07.340Z,8.69
2019-03-18T03:21:40.479Z,8.52
2019-03-18T03:24:13.790Z,10.94
2019-03-18T03:26:46.930Z,14.94
2019-03-18T03:29:20.155Z,14.96
2019-03-18T03:31:53.354Z,13.38
2019-03-18T03:34:26.572Z,12.31
2019-03-18T03:36:59.752Z,11.58
2019-03-18T03:39:33.022Z,11.03
2019-03-18T03:42:06.231Z,10.61
2019-03-18T03:44:39.683Z,10.24
2019-03-18T03:47:12.841Z,9.94
2019-03-18T03:49:46.377Z,9.66
2019-03-18T03:52:19.829Z,9.41
2019-03-18T03:54:53.206Z,9.15
2019-03-18T03:57:26.314Z,8.95
2019-03-18T03:59:59.639Z,8.72
2019-03-18T04:02:34.214Z,8.53
2019-03-18T04:05:07.656Z,10.75
2019-03-18T04:07:40.938Z,14.87
2019-03-18T04:10:14.161Z,14.80
2019-03-18T04:12:47.720Z,13.25
2019-03-18T04:15:20.951Z,12.13
2019-03-18T04:17:54.148Z,11.41
2019-03-18T04:20:27.342Z,10.86
2019-03-18T04:23:01.416Z,10.44
2019-03-18T04:25:34.957Z,10.07
2019-03-18T04:28:08.114Z,9.74
2019-03-18T04:30:41.740Z,9.45
2019-03-18T04:33:14.813Z,9.20
2019-03-18T04:35:47.991Z,8.95
2019-03-18T04:38:21.197Z,8.70
2019-03-18T04:40:54.552Z,8.49
2019-03-18T04:43:27.757Z,8.30
2019-03-18T04:46:01.347Z,8.10
2019-03-18T04:48:43.243Z,10.52
2019-03-18T04:51:20.652Z,14.63
2019-03-18T04:53:58.018Z,14.38
2019-03-18T04:56:31.871Z,12.83
2019-03-18T04:59:06.192Z,11.73
2019-03-18T05:01:55.476Z,11.03
2019-03-18T05:05:22.177Z,10.44
2019-03-18T05:07:59.994Z,9.90
2019-03-18T05:10:35.396Z,9.56
2019-03-18T05:13:13.019Z,9.25
2019-03-18T05:15:49.889Z,8.95
2019-03-18T05:18:26.514Z,8.66
2019-03-18T05:21:02.180Z,8.44
2019-03-18T05:23:37.945Z,8.25
2019-03-18T05:26:14.810Z,8.06
2019-03-18T05:28:50.125Z,10.75
2019-03-18T05:31:35.100Z,14.75
2019-03-18T05:34:18.173Z,14.28
2019-03-18T05:36:52.401Z,12.72
2019-03-18T05:39:39.536Z,11.66
2019-03-18T05:42:16.604Z,10.90
2019-03-18T05:44:50.919Z,10.44
2019-03-18T05:47:25.647Z,10.10
2019-03-18T05:49:59.250Z,9.80
2019-03-18T05:52:32.837Z,9.56
2019-03-18T05:55:07.657Z,9.39
2019-03-18T05:57:44.655Z,9.20
2019-03-18T06:00:19.739Z,9.03
2019-03-18T06:02:53.274Z,8.80
2019-03-18T06:05:26.925Z,8.70
2019-03-18T06:08:00.496Z,8.58
2019-03-18T06:10:34.715Z,11.17
2019-03-18T06:13:08.962Z,15.15
2019-03-18T06:15:43.257Z,14.59
2019-03-18T06:18:17.047Z,13.22
2019-03-18T06:20:50.840Z,12.32
2019-03-18T06:23:25.214Z,11.69
2019-03-18T06:25:59.021Z,11.25
2019-03-18T06:28:32.687Z,10.93
2019-03-18T06:31:06.428Z,10.65
2019-03-18T07:09:30.868Z,11.94
2019-03-18T07:25:01.929Z,10.68
2019-03-18T07:28:22.450Z,10.59
2019-03-18T07:39:19.239Z,10.20
2019-03-18T07:54:32.867Z,9.70
2019-03-18T08:05:16.631Z,9.37
2019-03-18T08:30:07.568Z,9.23
2019-03-18T10:20:44.214Z,8.76
2019-03-18T10:23:26.444Z,8.83
2019-03-18T10:26:13.856Z,8.85
2019-03-18T10:28:55.152Z,8.86
2019-03-18T10:32:03.969Z,8.85
2019-03-18T10:43:50.767Z,8.72
2019-03-18T10:47:35.790Z,8.68
2019-03-18T10:51:14.927Z,8.63
2019-03-18T10:54:35.459Z,8.56
2019-03-18T11:33:33.622Z,8.93
2019-03-18T11:37:09.924Z,8.97
2019-03-18T11:43:58.122Z,9.17
2019-03-18T11:55:40.196Z,9.41
2019-03-18T12:42:13.290Z,9.63
2019-03-18T12:52:21.653Z,9.65
2019-03-18T12:55:24.286Z,9.65
2019-03-18T12:59:16.588Z,9.66
2019-03-18T13:06:16.624Z,9.73
2019-03-18T13:09:29.187Z,9.78
2019-03-18T13:13:24.310Z,9.82
2019-03-18T13:16:27.935Z,9.86
2019-03-18T13:19:20.728Z,9.87
2019-03-18T13:22:08.222Z,9.85
2019-03-18T13:24:47.140Z,9.82
2019-03-18T13:27:30.582Z,9.80
2019-03-18T13:30:15.443Z,9.79
2019-03-18T13:50:41.756Z,9.58
2019-03-18T13:53:36.081Z,9.55
2019-03-18T13:56:12.317Z,9.51
2019-03-18T14:11:38.512Z,9.39
2019-03-18T14:14:38.038Z,9.39
2019-03-18T14:29:00.250Z,9.35
2019-03-18T14:32:31.378Z,9.38
2019-03-18T14:35:16.140Z,9.42
2019-03-18T14:37:53.543Z,9.42
2019-03-18T14:40:30.708Z,9.45
2019-03-18T14:43:37.868Z,9.48
2019-03-18T14:47:10.750Z,9.45
2019-03-18T15:09:19.104Z,9.59
2019-03-18T15:12:57.346Z,9.56
2019-03-18T15:16:47.850Z,9.58
2019-03-18T15:19:36.717Z,9.56
2019-03-18T15:22:14.864Z,9.55
2019-03-18T15:24:51.255Z,9.53
2019-03-18T16:18:48.444Z,9.34
2019-03-18T16:29:43.693Z,9.18
2019-03-18T16:32:17.012Z,9.15
2019-03-18T16:34:50.261Z,9.14
2019-03-18T16:37:23.412Z,9.10
2019-03-18T16:39:56.755Z,9.06
2019-03-18T16:42:30.131Z,9.03
2019-03-18T16:45:03.537Z,9.03
2019-03-18T16:47:36.900Z,8.99
2019-03-18T16:50:12.920Z,8.96
2019-03-18T16:52:46.200Z,8.93
2019-03-18T16:55:19.504Z,8.95
2019-03-18T16:58:02.885Z,8.93
2019-03-18T17:01:45.073Z,8.87
2019-03-18T17:04:49.674Z,8.87
2019-03-18T17:07:48.443Z,8.86
2019-03-18T17:10:29.177Z,8.83
2019-03-18T17:13:24.850Z,8.83
2019-03-18T17:16:07.774Z,8.79
2019-03-18T17:19:00.536Z,8.77
2019-03-18T17:21:41.045Z,8.75
2019-03-18T17:24:50.119Z,8.73
2019-03-18T17:28:03.156Z,8.70
2019-03-18T17:31:03.846Z,8.68
2019-03-18T17:34:28.005Z,8.63
2019-03-18T17:41:46.454Z,8.58
2019-03-18T17:44:30.779Z,8.51
2019-03-18T17:47:29.910Z,8.45
2019-03-18T17:50:06.310Z,8.42
2019-03-18T17:52:42.066Z,8.37
2019-03-18T17:55:16.732Z,8.35
2019-03-18T17:57:55.978Z,8.30
2019-03-18T18:00:40.776Z,8.25
2019-03-18T18:03:35.606Z,8.24
2019-03-18T18:06:59.085Z,8.21
2019-03-18T18:10:23.103Z,8.14
2019-03-18T18:13:16.243Z,8.13
2019-03-18T18:16:44.853Z,8.10
2019-03-18T18:19:47.324Z,8.03
2019-03-18T18:26:34.787Z,7.99
2019-03-18T18:29:13.247Z,7.94
2019-03-18T18:31:50.347Z,7.93
2019-03-18T18:34:24.313Z,7.89
2019-03-18T18:37:00.878Z,7.86
2019-03-18T18:39:55.585Z,7.82
2019-03-18T18:42:41.828Z,7.79
2019-03-18T18:58:40.294Z,7.58
2019-03-18T19:01:21.323Z,7.52
2019-03-18T19:03:55.394Z,7.49
2019-03-18T19:06:39.232Z,7.44
2019-03-18T19:10:08.450Z,7.37
2019-03-18T19:13:44.749Z,7.34
2019-03-18T19:16:20.123Z,7.30
2019-03-18T19:23:09.965Z,7.19
2019-03-18T19:26:21.327Z,7.19
2019-03-18T19:29:15.270Z,7.13
2019-03-18T19:35:21.147Z,7.04
2019-03-18T19:38:46.045Z,7.04
2019-03-18T19:41:29.202Z,7.00
2019-03-18T19:44:04.427Z,6.99
2019-03-18T19:46:48.017Z,6.98
2019-03-18T19:53:12.798Z,6.93
2019-03-18T19:55:48.897Z,6.95
2019-03-18T19:58:31.944Z,6.92
2019-03-18T20:01:14.076Z,6.89
2019-03-18T20:04:04.912Z,6.89
2019-03-18T20:07:00.012Z,6.89
2019-03-18T20:09:55.551Z,6.86
2019-03-18T20:13:16.983Z,6.86
2019-03-18T20:16:01.595Z,6.85
2019-03-18T20:18:58.704Z,6.86
2019-03-18T20:21:32.912Z,6.85
2019-03-18T20:24:09.820Z,6.85
2019-03-18T20:26:45.472Z,6.82
2019-03-18T20:29:21.476Z,6.81
2019-03-18T20:32:04.191Z,6.79
2019-03-18T20:34:47.768Z,6.79
2019-03-18T20:37:25.755Z,6.81
2019-03-18T20:40:31.568Z,6.79
2019-03-18T20:43:04.204Z,9.86
2019-03-18T20:45:44.364Z,11.10
2019-03-18T20:48:27.766Z,10.20
2019-03-18T20:51:13.470Z,9.48
2019-03-18T20:53:47.879Z,9.06
2019-03-18T20:56:26.355Z,8.79
2019-03-18T20:59:09.691Z,8.53
2019-03-18T21:01:48.569Z,8.40
2019-03-18T21:04:32.963Z,8.22
2019-03-18T21:07:43.625Z,8.09
2019-03-18T21:10:20.376Z,7.96
2019-03-18T21:13:01.809Z,7.85
2019-03-18T21:16:00.178Z,7.75
2019-03-18T21:18:49.664Z,7.63
2019-03-18T21:21:28.194Z,7.54
2019-03-18T21:27:47.947Z,7.38
2019-03-18T21:30:42.151Z,7.30
2019-03-18T21:34:14.658Z,7.24
2019-03-18T21:37:01.154Z,7.14
2019-03-18T21:39:42.897Z,7.04
2019-03-18T21:42:21.092Z,7.00
2019-03-18T21:44:57.347Z,6.96
2019-03-18T21:47:34.115Z,6.85
2019-03-18T21:50:08.092Z,6.82
2019-03-18T21:52:41.887Z,6.76
2019-03-18T21:55:40.267Z,6.71
2019-03-18T21:58:17.983Z,6.68
2019-03-18T22:00:52.437Z,6.61
2019-03-18T22:03:26.179Z,9.10
2019-03-18T22:06:00.978Z,13.10
2019-03-18T22:08:34.452Z,13.10
2019-03-18T22:11:07.800Z,11.70
2019-03-18T22:13:41.546Z,10.68
2019-03-18T22:16:15.209Z,10.03
2019-03-18T22:18:48.533Z,9.53
2019-03-18T22:21:21.745Z,9.20
2019-03-18T22:23:55.042Z,8.90
2019-03-18T22:26:29.421Z,8.66
2019-03-18T22:29:02.614Z,8.38
2019-03-18T22:31:35.858Z,8.17
2019-03-18T22:34:10.201Z,7.97
2019-03-18T22:36:43.470Z,7.81
2019-03-18T22:39:17.643Z,7.62
2019-03-18T22:41:51.025Z,7.48
2019-03-18T22:44:24.731Z,7.34
2019-03-18T22:46:57.972Z,7.23
2019-03-18T22:49:32.206Z,7.10
2019-03-18T22:52:05.588Z,7.02
2019-03-18T22:54:39.044Z,6.92
2019-03-18T22:57:12.411Z,6.83
2019-03-18T22:59:46.173Z,6.76
2019-03-18T23:02:20.241Z,6.69
2019-03-18T23:04:54.397Z,6.62
2019-03-18T23:07:29.124Z,6.56
2019-03-18T23:10:04.984Z,6.52
2019-03-18T23:12:38.763Z,6.44
2019-03-18T23:15:13.087Z,6.41
2019-03-18T23:17:48.648Z,9.00
2019-03-18T23:20:22.074Z,13.04
2019-03-18T23:22:55.764Z,12.94
2019-03-18T23:25:29.125Z,11.52
2019-03-18T23:28:02.582Z,10.51
2019-03-18T23:30:36.302Z,9.80
2019-03-18T23:33:09.611Z,9.34
2019-03-18T23:35:43.325Z,9.02
2019-03-18T23:38:17.008Z,8.65
2019-03-18T23:40:51.389Z,8.38
2019-03-18T23:43:25.156Z,8.16
2019-03-18T23:45:58.972Z,7.88
2019-03-18T23:48:34.897Z,7.67
2019-03-18T23:51:13.359Z,7.47
2019-03-18T23:53:47.365Z,7.28
2019-03-18T23:56:21.569Z,7.13
2019-03-18T23:58:55.449Z,6.96
